createdAt,value
2023-11-17T00:00:01.342Z,8.54
2023-11-17T00:01:01.890Z,8.61
2023-11-17T00:02:02.902Z,8.57
2023-11-17T00:03:03.423Z,8.57
2023-11-17T00:04:04.650Z,8.66
2023-11-17T00:05:05.320Z,8.63
2023-11-17T00:06:05.469Z,8.6
2023-11-17T00:07:06.121Z,8.64
2023-11-17T00:08:07.243Z,8.64
2023-11-17T00:09:07.878Z,8.59
2023-11-17T00:10:08.258Z,8.72
2023-11-17T00:11:08.508Z,8.78
2023-11-17T00:12:09.625Z,8.84
2023-11-17T00:13:10.195Z,8.9
2023-11-17T00:14:11.325Z,9.02
2023-11-17T00:15:11.995Z,9.09
2023-11-17T00:16:12.632Z,9.15
2023-11-17T00:17:13.888Z,9.13
2023-11-17T00:18:14.962Z,9.11
2023-11-17T00:19:15.442Z,9.26
2023-11-17T00:20:16.471Z,9.33
2023-11-17T00:21:17.369Z,9.31
2023-11-17T00:22:17.676Z,9.33
2023-11-17T00:23:18.646Z,9.51
2023-11-17T00:24:19.379Z,9.59
2023-11-17T00:25:19.514Z,9.59
2023-11-17T00:26:20.329Z,9.74
2023-11-17T00:27:21.024Z,9.82
2023-11-17T00:28:22.231Z,9.85
2023-11-17T00:29:22.630Z,9.82
2023-11-17T00:30:23.281Z,9.82
2023-11-17T00:31:24.226Z,9.82
2023-11-17T00:32:25.093Z,9.97
2023-11-17T00:33:25.836Z,9.95
2023-11-17T00:34:26.450Z,9.92
2023-11-17T00:35:26.902Z,9.94
2023-11-17T00:36:27.800Z,9.99
2023-11-17T00:37:28.702Z,10.03
2023-11-17T00:38:28.641Z,9.95
2023-11-17T00:39:29.331Z,9.95
2023-11-17T00:40:30.560Z,9.95
2023-11-17T00:41:36.465Z,9.95
2023-11-17T00:43:32.290Z,9.9
2023-11-17T00:44:32.607Z,9.84
2023-11-17T00:45:33.472Z,9.85
2023-11-17T00:46:33.485Z,9.82
2023-11-17T00:47:34.081Z,9.88
2023-11-17T00:48:33.749Z,9.87
2023-11-17T00:49:34.903Z,9.81
2023-11-17T00:50:36.014Z,9.8
2023-11-17T00:51:36.198Z,9.64
2023-11-17T00:52:36.042Z,9.62
2023-11-17T00:53:36.949Z,9.7
2023-11-17T00:54:37.449Z,9.66
2023-11-17T00:55:40.286Z,9.56
2023-11-17T00:56:38.354Z,9.54
2023-11-17T00:57:39.321Z,9.55
2023-11-17T00:58:40.169Z,9.47
2023-11-17T00:59:40.966Z,9.54
2023-11-17T01:00:41.587Z,9.54
2023-11-17T01:01:42.887Z,9.54
2023-11-17T01:02:42.720Z,9.47
2023-11-17T01:03:43.367Z,9.44
2023-11-17T01:04:43.823Z,9.42
2023-11-17T01:05:43.905Z,9.39
2023-11-17T01:06:45.038Z,9.4
2023-11-17T01:07:45.780Z,9.37
2023-11-17T01:08:46.698Z,9.31
2023-11-17T01:09:47.407Z,9.37
2023-11-17T01:10:47.234Z,9.39
2023-11-17T01:11:47.713Z,9.36
2023-11-17T01:12:48.826Z,9.4
2023-11-17T01:13:48.922Z,9.34
2023-11-17T01:14:49.704Z,9.34
2023-11-17T01:15:50.492Z,9.3
2023-11-17T01:16:51.029Z,9.34
2023-11-17T01:17:51.877Z,9.36
2023-11-17T01:18:52.374Z,9.3
2023-11-17T01:19:52.706Z,9.22
2023-11-17T01:20:52.978Z,9.08
2023-11-17T01:21:53.698Z,9.02
2023-11-17T01:22:54.334Z,8.84
2023-11-17T01:23:55.021Z,8.72
2023-11-17T01:24:56.015Z,8.54
2023-11-17T01:25:56.231Z,8.38
2023-11-17T01:26:56.930Z,8.38
2023-11-17T01:27:57.475Z,8.14
2023-11-17T01:28:58.114Z,8.14
2023-11-17T01:29:58.677Z,8.03
2023-11-17T01:30:59.271Z,8.02
2023-11-17T01:32:00.016Z,7.98
2023-11-17T01:33:00.624Z,7.87
2023-11-17T01:34:01.883Z,7.84
2023-11-17T01:35:02.843Z,7.9
2023-11-17T01:36:02.737Z,7.83
2023-11-17T01:37:03.119Z,7.85
2023-11-17T01:38:03.924Z,7.85
2023-11-17T01:39:05.120Z,7.81
2023-11-17T01:40:05.348Z,7.77
2023-11-17T01:41:05.543Z,7.67
2023-11-17T01:42:06.252Z,7.78
2023-11-17T01:43:07.425Z,7.77
2023-11-17T01:44:07.574Z,7.7
2023-11-17T01:45:08.778Z,7.69
2023-11-17T01:46:08.968Z,7.64
2023-11-17T01:47:08.942Z,7.64
2023-11-17T01:48:10.204Z,7.62
2023-11-17T01:49:10.649Z,7.5
2023-11-17T01:50:11.540Z,7.5
2023-11-17T01:51:12.338Z,7.53
2023-11-17T01:52:13.110Z,7.58
2023-11-17T01:53:14.090Z,7.51
2023-11-17T01:54:14.991Z,7.59
2023-11-17T01:55:15.871Z,7.59
2023-11-17T01:56:15.817Z,7.55
2023-11-17T01:57:16.321Z,7.53
2023-11-17T01:58:16.903Z,7.59
2023-11-17T01:59:17.450Z,7.62
2023-11-17T02:00:17.825Z,7.56
2023-11-17T02:01:19.002Z,7.56
2023-11-17T02:02:19.214Z,7.69
2023-11-17T02:03:19.409Z,7.74
2023-11-17T02:04:19.607Z,7.66
2023-11-17T02:05:20.446Z,7.72
2023-11-17T02:06:20.871Z,7.78
2023-11-17T02:07:21.819Z,7.75
2023-11-17T02:08:22.624Z,7.62
2023-11-17T02:09:23.064Z,7.72
2023-11-17T02:10:23.948Z,7.78
2023-11-17T02:11:23.947Z,7.8
2023-11-17T02:12:24.027Z,7.78
2023-11-17T02:13:25.040Z,7.81
2023-11-17T02:14:26.090Z,7.77
2023-11-17T02:15:25.940Z,7.62
2023-11-17T02:16:26.624Z,7.72
2023-11-17T02:17:27.042Z,7.64
2023-11-17T02:18:26.831Z,7.58
2023-11-17T02:19:27.182Z,7.59
2023-11-17T02:20:27.650Z,7.56
2023-11-17T02:21:28.140Z,7.58
2023-11-17T02:22:29.219Z,7.5
2023-11-17T02:23:28.982Z,7.61
2023-11-17T02:24:30.000Z,7.53
2023-11-17T02:25:30.650Z,7.56
2023-11-17T02:26:31.434Z,7.51
2023-11-17T02:27:31.990Z,7.56
2023-11-17T02:28:32.526Z,7.53
2023-11-17T02:29:33.169Z,7.46
2023-11-17T02:30:33.324Z,7.48
2023-11-17T02:31:34.694Z,7.41
2023-11-17T02:32:34.884Z,7.46
2023-11-17T02:33:34.768Z,7.46
2023-11-17T02:34:35.265Z,7.33
2023-11-17T02:35:36.143Z,7.33
2023-11-17T02:36:36.820Z,7.36
2023-11-17T02:37:37.337Z,7.4
2023-11-17T02:38:37.592Z,7.33
2023-11-17T02:39:38.583Z,7.37
2023-11-17T02:40:39.315Z,7.44
2023-11-17T02:41:40.103Z,7.32
2023-11-17T02:43:40.871Z,7.41
2023-11-17T02:44:41.624Z,7.4
2023-11-17T02:45:42.365Z,7.39
2023-11-17T02:46:43.433Z,7.37
2023-11-17T02:47:43.403Z,7.36
2023-11-17T02:48:43.628Z,7.32
2023-11-17T02:49:44.389Z,7.33
2023-11-17T02:50:44.974Z,7.33
2023-11-17T02:51:45.706Z,7.28
2023-11-17T02:52:46.285Z,7.29
2023-11-17T02:53:46.999Z,7.19
2023-11-17T02:54:47.749Z,7.29
2023-11-17T02:55:48.331Z,7.19
2023-11-17T02:56:49.279Z,7.22
2023-11-17T02:57:49.824Z,7.28
2023-11-17T02:58:50.775Z,7.15
2023-11-17T02:59:51.519Z,7.18
2023-11-17T03:00:51.955Z,7.13
2023-11-17T03:01:53.149Z,7.14
2023-11-17T03:02:54.072Z,7.13
2023-11-17T03:03:55.570Z,7.15
2023-11-17T03:04:55.521Z,7.04
2023-11-17T03:05:56.226Z,7.13
2023-11-17T03:06:57.432Z,7.05
2023-11-17T03:07:58.223Z,7.11
2023-11-17T03:08:58.737Z,7.01
2023-11-17T03:10:00.113Z,7.14
2023-11-17T03:10:59.812Z,7.19
2023-11-17T03:12:00.764Z,6.97
2023-11-17T03:13:01.736Z,7.03
2023-11-17T03:14:01.586Z,7.01
2023-11-17T03:15:02.475Z,7.01
2023-11-17T03:16:03.260Z,6.97
2023-11-17T03:17:03.611Z,6.96
2023-11-17T03:18:03.557Z,6.92
2023-11-17T03:19:04.219Z,6.95
2023-11-17T03:20:05.011Z,6.86
2023-11-17T03:21:05.803Z,6.89
2023-11-17T03:22:06.885Z,6.85
2023-11-17T03:23:07.310Z,6.8
2023-11-17T03:24:07.643Z,6.8
2023-11-17T03:25:08.720Z,6.85
2023-11-17T03:26:08.377Z,6.8
2023-11-17T03:27:09.335Z,6.67
2023-11-17T03:28:10.150Z,6.72
2023-11-17T03:29:10.866Z,6.64
2023-11-17T03:30:11.760Z,6.56
2023-11-17T03:31:12.607Z,6.62
2023-11-17T03:32:14.091Z,6.49
2023-11-17T03:33:14.174Z,6.49
2023-11-17T03:34:14.950Z,6.49
2023-11-17T03:35:15.798Z,6.47
2023-11-17T03:36:16.503Z,6.46
2023-11-17T03:37:17.073Z,6.46
2023-11-17T03:38:17.765Z,6.32
2023-11-17T03:39:18.267Z,6.36
2023-11-17T03:40:20.683Z,6.35
2023-11-17T03:42:20.406Z,6.29
2023-11-17T03:43:21.555Z,6.28
2023-11-17T03:44:21.530Z,6.2
2023-11-17T03:45:22.612Z,6.22
2023-11-17T03:46:23.009Z,6.25
2023-11-17T03:47:24.029Z,6.09
2023-11-17T03:48:24.217Z,5.99
2023-11-17T03:49:25.076Z,6.13
2023-11-17T03:50:26.058Z,5.98
2023-11-17T03:51:26.256Z,6.15
2023-11-17T03:52:27.581Z,6.12
2023-11-17T03:53:27.460Z,6.05
2023-11-17T03:54:27.972Z,6.05
2023-11-17T03:55:29.037Z,6.02
2023-11-17T03:56:29.428Z,5.94
2023-11-17T03:57:30.395Z,6.07
2023-11-17T03:58:31.240Z,6.02
2023-11-17T03:59:32.324Z,5.99
2023-11-17T04:00:32.950Z,6.01
2023-11-17T04:01:33.271Z,5.95
2023-11-17T04:02:33.975Z,5.99
2023-11-17T04:03:35.066Z,5.97
2023-11-17T04:04:35.577Z,5.92
2023-11-17T04:05:36.172Z,6.01
2023-11-17T04:06:36.738Z,5.91
2023-11-17T04:07:37.256Z,5.87
2023-11-17T04:08:37.809Z,5.92
2023-11-17T04:09:38.399Z,5.81
2023-11-17T04:10:39.127Z,5.79
2023-11-17T04:11:39.354Z,5.88
2023-11-17T04:12:40.327Z,5.81
2023-11-17T04:13:41.479Z,5.8
2023-11-17T04:14:41.759Z,5.83
2023-11-17T04:15:42.610Z,5.91
2023-11-17T04:16:43.582Z,5.8
2023-11-17T04:17:44.280Z,5.76
2023-11-17T04:18:44.953Z,5.76
2023-11-17T04:19:45.354Z,5.73
2023-11-17T04:20:46.093Z,5.73
2023-11-17T04:21:46.936Z,5.72
2023-11-17T04:22:47.749Z,5.7
2023-11-17T04:23:48.031Z,5.72
2023-11-17T04:24:48.684Z,5.64
2023-11-17T04:25:49.488Z,5.67
2023-11-17T04:26:50.030Z,5.65
2023-11-17T04:27:51.058Z,5.61
2023-11-17T04:28:51.755Z,5.73
2023-11-17T04:29:52.440Z,5.73
2023-11-17T04:30:53.056Z,5.64
2023-11-17T04:31:53.589Z,5.62
2023-11-17T04:32:54.462Z,5.65
2023-11-17T04:33:55.576Z,5.62
2023-11-17T04:34:56.152Z,5.72
2023-11-17T04:35:56.876Z,5.72
2023-11-17T04:36:58.032Z,5.72
2023-11-17T04:37:58.734Z,5.59
2023-11-17T04:38:59.025Z,5.64
2023-11-17T04:39:59.613Z,5.56
2023-11-17T04:41:00.324Z,5.61
2023-11-17T04:42:00.972Z,5.56
2023-11-17T04:43:02.017Z,5.51
2023-11-17T04:44:02.236Z,5.46
2023-11-17T04:45:03.135Z,5.47
2023-11-17T04:46:03.480Z,5.38
2023-11-17T04:47:04.175Z,5.4
2023-11-17T04:48:04.943Z,5.33
2023-11-17T04:49:05.968Z,5.36
2023-11-17T04:50:07.146Z,5.33
2023-11-17T04:51:07.890Z,5.38
2023-11-17T04:52:08.652Z,5.43
2023-11-17T04:53:09.444Z,5.41
2023-11-17T04:54:09.715Z,5.36
2023-11-17T04:55:10.128Z,5.33
2023-11-17T04:56:10.129Z,5.33
2023-11-17T04:57:10.673Z,5.4
2023-11-17T04:58:11.622Z,5.38
2023-11-17T04:59:12.205Z,5.29
2023-11-17T05:00:12.891Z,5.38
2023-11-17T05:01:13.957Z,5.28
2023-11-17T05:02:14.346Z,5.28
2023-11-17T05:03:19.450Z,5.34
2023-11-17T05:04:14.758Z,5.31
2023-11-17T05:05:14.768Z,5.28
2023-11-17T05:06:15.267Z,5.31
2023-11-17T05:07:16.404Z,5.13
2023-11-17T05:08:16.291Z,5.13
2023-11-17T05:09:17.196Z,5.02
2023-11-17T05:10:17.784Z,5.12
2023-11-17T05:11:18.873Z,5.04
2023-11-17T05:12:19.697Z,5.07
2023-11-17T05:13:19.880Z,5.1
2023-11-17T05:14:20.498Z,5.04
2023-11-17T05:15:20.814Z,4.92
2023-11-17T05:16:22.177Z,5
2023-11-17T05:17:22.280Z,5.02
2023-11-17T05:18:22.413Z,5.01
2023-11-17T05:19:23.076Z,4.98
2023-11-17T05:20:23.087Z,5
2023-11-17T05:21:23.603Z,5.02
2023-11-17T05:22:27.924Z,5.01
2023-11-17T05:24:25.357Z,5.04
2023-11-17T05:25:25.804Z,5.07
2023-11-17T05:26:26.906Z,4.97
2023-11-17T05:27:27.430Z,5.01
2023-11-17T05:28:28.426Z,5.02
2023-11-17T05:29:29.125Z,5.02
2023-11-17T05:30:29.820Z,5
2023-11-17T05:31:31.014Z,5.02
2023-11-17T05:32:30.848Z,5.05
2023-11-17T05:33:31.636Z,4.97
2023-11-17T05:34:32.484Z,5.02
2023-11-17T05:35:32.461Z,4.92
2023-11-17T05:36:33.018Z,5.01
2023-11-17T05:37:34.075Z,5.04
2023-11-17T05:38:34.777Z,5.02
2023-11-17T05:39:35.095Z,5.02
2023-11-17T05:40:36.334Z,5.04
2023-11-17T05:41:36.698Z,5.02
2023-11-17T05:42:37.052Z,5.02
2023-11-17T05:43:37.770Z,4.89
2023-11-17T05:44:39.023Z,4.9
2023-11-17T05:45:39.806Z,4.9
2023-11-17T05:46:40.855Z,4.82
2023-11-17T05:47:41.277Z,4.82
2023-11-17T05:48:41.496Z,4.78
2023-11-17T05:49:42.283Z,4.79
2023-11-17T05:50:42.839Z,4.79
2023-11-17T05:51:43.530Z,4.68
2023-11-17T05:52:43.606Z,4.75
2023-11-17T05:53:44.208Z,4.78
2023-11-17T05:54:44.967Z,4.66
2023-11-17T05:55:45.510Z,4.71
2023-11-17T05:56:45.947Z,4.79
2023-11-17T05:57:46.703Z,4.75
2023-11-17T05:58:46.722Z,4.83
2023-11-17T05:59:47.450Z,4.82
2023-11-17T06:00:48.648Z,4.79
2023-11-17T06:01:49.458Z,4.78
2023-11-17T06:02:50.161Z,4.79
2023-11-17T06:03:50.682Z,4.79
2023-11-17T06:04:50.905Z,4.71
2023-11-17T06:05:50.752Z,4.74
2023-11-17T06:06:51.337Z,4.71
2023-11-17T06:07:52.508Z,4.7
2023-11-17T06:08:53.012Z,4.75
2023-11-17T06:09:53.373Z,4.7
2023-11-17T06:10:54.312Z,4.66
2023-11-17T06:11:55.502Z,4.67
2023-11-17T06:12:56.033Z,4.64
2023-11-17T06:13:57.085Z,4.66
2023-11-17T06:14:57.987Z,4.71
2023-11-17T06:15:59.184Z,4.68
2023-11-17T06:16:59.720Z,4.66
2023-11-17T06:17:59.719Z,4.66
2023-11-17T06:19:00.565Z,4.61
2023-11-17T06:20:01.339Z,4.74
2023-11-17T06:21:01.946Z,4.66
2023-11-17T06:22:02.828Z,4.63
2023-11-17T06:23:03.931Z,4.67
2023-11-17T06:24:04.449Z,4.78
2023-11-17T06:25:05.553Z,4.75
2023-11-17T06:26:06.116Z,4.74
2023-11-17T06:27:06.807Z,4.68
2023-11-17T06:28:07.616Z,4.66
2023-11-17T06:29:08.772Z,4.76
2023-11-17T06:30:08.696Z,4.71
2023-11-17T06:31:09.746Z,4.66
2023-11-17T06:32:09.861Z,4.67
2023-11-17T06:33:10.204Z,4.67
2023-11-17T06:34:11.328Z,4.67
2023-11-17T06:35:11.033Z,4.68
2023-11-17T06:36:11.730Z,4.66
2023-11-17T06:37:12.442Z,4.67
2023-11-17T06:38:13.531Z,4.53
2023-11-17T06:39:13.745Z,4.57
2023-11-17T06:40:14.332Z,4.57
2023-11-17T06:41:14.935Z,4.48
2023-11-17T06:42:15.593Z,4.48
2023-11-17T06:43:16.544Z,4.6
2023-11-17T06:44:16.710Z,4.52
2023-11-17T06:45:17.426Z,4.52
2023-11-17T06:46:18.273Z,4.56
2023-11-17T06:47:18.576Z,4.48
2023-11-17T06:48:19.055Z,4.5
2023-11-17T06:49:20.124Z,4.53
2023-11-17T06:50:20.409Z,4.57
2023-11-17T06:51:20.934Z,4.49
2023-11-17T06:52:21.318Z,4.53
2023-11-17T06:53:21.850Z,4.53
2023-11-17T06:54:22.914Z,4.57
2023-11-17T06:55:23.070Z,4.43
2023-11-17T06:56:22.948Z,4.56
2023-11-17T06:57:23.348Z,4.5
2023-11-17T06:58:24.372Z,4.5
2023-11-17T06:59:24.545Z,4.56
2023-11-17T07:00:25.077Z,4.56
2023-11-17T07:01:27.490Z,4.56
2023-11-17T07:02:26.790Z,4.56
2023-11-17T07:03:27.101Z,4.56
2023-11-17T07:04:27.139Z,4.48
2023-11-17T07:05:27.572Z,4.52
2023-11-17T07:06:28.592Z,4.52
2023-11-17T07:07:29.224Z,4.48
2023-11-17T07:08:30.349Z,4.58
2023-11-17T07:09:30.291Z,4.48
2023-11-17T07:10:31.167Z,4.43
2023-11-17T07:11:31.701Z,4.48
2023-11-17T07:12:33.053Z,4.5
2023-11-17T07:13:32.923Z,4.6
2023-11-17T07:14:33.253Z,4.61
2023-11-17T07:15:33.808Z,4.57
2023-11-17T07:16:47.344Z,4.63
2023-11-17T07:18:35.371Z,4.57
2023-11-17T07:19:36.570Z,4.57
2023-11-17T07:20:37.527Z,4.53
2023-11-17T07:21:39.278Z,4.56
2023-11-17T07:24:39.519Z,4.64
2023-11-17T07:25:40.296Z,4.66
2023-11-17T07:26:41.002Z,4.68
2023-11-17T07:27:42.044Z,4.7
2023-11-17T07:28:43.091Z,4.66
2023-11-17T07:29:43.531Z,4.61
2023-11-17T07:30:44.098Z,4.66
2023-11-17T07:31:45.839Z,4.58
2023-11-17T07:32:45.652Z,4.61
2023-11-17T07:33:45.664Z,4.52
2023-11-17T07:34:46.221Z,4.57
2023-11-17T07:35:47.159Z,4.56
2023-11-17T07:36:48.055Z,4.56
2023-11-17T07:37:48.787Z,4.64
2023-11-17T07:38:49.829Z,4.66
2023-11-17T07:39:50.818Z,4.66
2023-11-17T07:40:51.668Z,4.64
2023-11-17T07:41:52.603Z,4.66
2023-11-17T07:42:53.214Z,4.61
2023-11-17T07:43:54.234Z,4.64
2023-11-17T07:44:54.575Z,4.71
2023-11-17T07:45:54.669Z,4.67
2023-11-17T07:46:55.938Z,4.74
2023-11-17T07:47:55.755Z,4.83
2023-11-17T07:49:02.051Z,4.82
2023-11-17T07:50:57.882Z,4.79
2023-11-17T07:51:57.658Z,4.79
2023-11-17T07:52:58.577Z,4.89
2023-11-17T07:53:59.534Z,4.92
2023-11-17T07:55:00.711Z,4.87
2023-11-17T07:56:00.644Z,4.92
2023-11-17T07:57:00.928Z,4.92
2023-11-17T07:58:01.843Z,5.04
2023-11-17T07:59:02.428Z,4.95
2023-11-17T08:00:03.364Z,4.92
2023-11-17T08:01:04.578Z,4.86
2023-11-17T08:02:04.656Z,4.89
2023-11-17T08:03:05.906Z,4.94
2023-11-17T08:04:06.404Z,4.98
2023-11-17T08:05:07.095Z,4.84
2023-11-17T08:06:07.848Z,4.83
2023-11-17T08:07:08.508Z,4.84
2023-11-17T08:08:10.045Z,4.9
2023-11-17T08:09:11.709Z,5
2023-11-17T08:10:11.610Z,5.08
2023-11-17T08:11:12.591Z,5.05
2023-11-17T08:12:13.297Z,5.04
2023-11-17T08:13:14.182Z,5.08
2023-11-17T08:14:15.247Z,5.01
2023-11-17T08:15:15.429Z,5.05
2023-11-17T08:16:16.484Z,5.19
2023-11-17T08:17:16.802Z,5.15
2023-11-17T08:18:16.652Z,5.15
2023-11-17T08:19:30.523Z,5.16
2023-11-17T08:21:18.248Z,5.2
2023-11-17T08:22:19.042Z,5.22
2023-11-17T08:23:19.403Z,5.19
2023-11-17T08:24:19.871Z,5.2
2023-11-17T08:25:20.667Z,5.28
2023-11-17T08:26:21.778Z,5.31
2023-11-17T08:27:21.667Z,5.25
2023-11-17T08:28:22.972Z,5.28
2023-11-17T08:29:27.156Z,5.22
2023-11-17T08:31:25.338Z,5.25
2023-11-17T08:32:25.527Z,5.2
2023-11-17T08:33:26.478Z,5.28
2023-11-17T08:34:27.377Z,5.31
2023-11-17T08:35:27.668Z,5.28
2023-11-17T08:36:28.380Z,5.28
2023-11-17T08:37:29.391Z,5.4
2023-11-17T08:38:29.456Z,5.4
2023-11-17T08:39:30.251Z,5.43
2023-11-17T08:40:30.924Z,5.38
2023-11-17T08:41:31.758Z,5.37
2023-11-17T08:42:32.480Z,5.43
2023-11-17T08:43:33.022Z,5.37
2023-11-17T08:44:33.980Z,5.47
2023-11-17T08:45:34.877Z,5.44
2023-11-17T08:46:35.088Z,5.54
2023-11-17T08:47:35.485Z,5.49
2023-11-17T08:48:36.250Z,5.47
2023-11-17T08:49:37.685Z,5.49
2023-11-17T08:50:37.632Z,5.67
2023-11-17T08:51:38.344Z,5.58
2023-11-17T08:52:39.563Z,5.69
2023-11-17T08:53:40.083Z,5.61
2023-11-17T08:54:41.011Z,5.58
2023-11-17T08:55:45.745Z,5.62
2023-11-17T08:56:43.006Z,5.73
2023-11-17T08:57:43.130Z,5.69
2023-11-17T08:58:43.506Z,5.69
2023-11-17T08:59:43.413Z,5.73
2023-11-17T09:00:44.447Z,5.8
2023-11-17T09:01:45.816Z,5.7
2023-11-17T09:02:46.367Z,5.79
2023-11-17T09:03:46.464Z,5.72
2023-11-17T09:04:47.146Z,5.69
2023-11-17T09:05:47.906Z,5.74
2023-11-17T09:06:48.671Z,5.72
2023-11-17T09:07:49.664Z,5.79
2023-11-17T09:08:49.696Z,5.76
2023-11-17T09:09:50.766Z,5.81
2023-11-17T09:10:51.702Z,5.79
2023-11-17T09:11:51.795Z,5.76
2023-11-17T09:12:55.092Z,5.77
2023-11-17T09:15:55.247Z,5.81
2023-11-17T09:16:56.224Z,5.79
2023-11-17T09:17:55.993Z,5.79
2023-11-17T09:18:55.791Z,5.77
2023-11-17T09:19:58.846Z,5.69
2023-11-17T09:21:56.870Z,5.67
2023-11-17T09:22:57.937Z,5.62
2023-11-17T09:23:58.860Z,5.58
2023-11-17T09:24:59.958Z,5.55
2023-11-17T09:26:00.863Z,5.61
2023-11-17T09:27:00.803Z,5.58
2023-11-17T09:28:01.385Z,5.58
2023-11-17T09:29:02.406Z,5.62
2023-11-17T09:30:03.324Z,5.64
2023-11-17T09:31:03.803Z,5.62
2023-11-17T09:32:05.059Z,5.56
2023-11-17T09:33:05.686Z,5.56
2023-11-17T09:34:05.890Z,5.61
2023-11-17T09:35:05.868Z,5.65
2023-11-17T09:36:06.643Z,5.64
2023-11-17T09:37:07.425Z,5.76
2023-11-17T09:38:08.217Z,5.73
2023-11-17T09:39:08.341Z,5.72
2023-11-17T09:40:08.768Z,5.69
2023-11-17T09:41:08.997Z,5.72
2023-11-17T09:42:09.148Z,5.72
2023-11-17T09:43:09.232Z,5.61
2023-11-17T09:44:09.711Z,5.51
2023-11-17T09:45:10.305Z,5.58
2023-11-17T09:46:10.758Z,5.51
2023-11-17T09:47:11.816Z,5.58
2023-11-17T09:48:12.033Z,5.58
2023-11-17T09:49:12.467Z,5.56
2023-11-17T09:50:12.432Z,5.47
2023-11-17T09:51:12.584Z,5.49
2023-11-17T09:52:13.491Z,5.61
2023-11-17T09:53:13.553Z,5.46
2023-11-17T09:54:13.862Z,5.55
2023-11-17T09:55:14.737Z,5.49
2023-11-17T09:56:15.978Z,5.54
2023-11-17T09:57:15.775Z,5.54
2023-11-17T09:58:17.600Z,5.49
2023-11-17T09:59:16.986Z,5.47
2023-11-17T10:00:17.762Z,5.44
2023-11-17T10:01:18.572Z,5.38
2023-11-17T10:02:19.839Z,5.38
2023-11-17T10:03:20.600Z,5.38
2023-11-17T10:04:20.316Z,5.44
2023-11-17T10:05:21.158Z,5.47
2023-11-17T10:06:22.055Z,5.55
2023-11-17T10:07:22.194Z,5.47
2023-11-17T10:08:22.801Z,5.64
2023-11-17T10:09:23.478Z,5.61
2023-11-17T10:10:25.555Z,5.61
2023-11-17T10:12:25.975Z,5.72
2023-11-17T10:13:27.079Z,5.69
2023-11-17T10:14:27.333Z,5.62
2023-11-17T10:15:28.336Z,5.64
2023-11-17T10:16:28.524Z,5.72
2023-11-17T10:17:29.526Z,5.74
2023-11-17T10:18:29.791Z,5.77
2023-11-17T10:19:30.009Z,5.72
2023-11-17T10:20:30.572Z,5.76
2023-11-17T10:21:31.681Z,5.81
2023-11-17T10:22:32.234Z,5.88
2023-11-17T10:23:32.804Z,5.87
2023-11-17T10:24:33.081Z,5.87
2023-11-17T10:25:34.261Z,5.95
2023-11-17T10:26:34.708Z,5.91
2023-11-17T10:27:35.387Z,5.92
2023-11-17T10:28:36.164Z,5.98
2023-11-17T10:29:37.175Z,5.94
2023-11-17T10:30:37.917Z,5.99
2023-11-17T10:31:38.357Z,5.94
2023-11-17T10:32:48.656Z,5.95
2023-11-17T10:34:39.298Z,5.95
2023-11-17T10:35:39.357Z,5.95
2023-11-17T10:36:40.451Z,5.97
2023-11-17T10:37:41.793Z,5.87
2023-11-17T10:38:41.794Z,5.94
2023-11-17T10:39:55.538Z,5.91
2023-11-17T10:40:43.086Z,5.87
2023-11-17T10:41:42.824Z,5.97
2023-11-17T10:42:43.554Z,5.98
2023-11-17T10:43:44.810Z,5.99
2023-11-17T10:44:45.524Z,6.02
2023-11-17T10:45:46.802Z,5.99
2023-11-17T10:46:47.974Z,6.05
2023-11-17T10:47:48.239Z,6.06
2023-11-17T10:48:48.023Z,6.02
2023-11-17T10:49:49.042Z,6.06
2023-11-17T10:50:50.177Z,6.07
2023-11-17T10:51:50.110Z,6.02
2023-11-17T10:52:51.260Z,6.12
2023-11-17T10:53:52.206Z,6.05
2023-11-17T10:54:52.756Z,6.12
2023-11-17T10:55:53.435Z,6.02
2023-11-17T10:56:53.524Z,6.06
2023-11-17T10:57:54.204Z,6.1
2023-11-17T10:58:54.461Z,6.09
2023-11-17T11:00:04.097Z,6.1
2023-11-17T11:01:56.430Z,6.05
2023-11-17T11:02:56.786Z,6.05
2023-11-17T11:03:56.996Z,6.06
2023-11-17T11:04:57.424Z,6.15
2023-11-17T11:05:58.268Z,6.06
2023-11-17T11:06:58.514Z,6.12
2023-11-17T11:07:58.533Z,6.01
2023-11-17T11:08:59.318Z,6.05
2023-11-17T11:10:00.809Z,5.99
2023-11-17T11:11:00.817Z,6.2
2023-11-17T11:13:01.248Z,5.99
2023-11-17T11:14:02.136Z,6.09
2023-11-17T11:15:02.852Z,6.05
2023-11-17T11:16:03.933Z,6.1
2023-11-17T11:17:04.883Z,6.02
2023-11-17T11:18:05.069Z,6.07
2023-11-17T11:19:05.862Z,6.02
2023-11-17T11:20:27.572Z,6.05
2023-11-17T11:22:08.666Z,6.06
2023-11-17T11:23:08.477Z,6.09
2023-11-17T11:24:09.168Z,6.12
2023-11-17T11:25:09.228Z,5.99
2023-11-17T11:26:09.938Z,6.12
2023-11-17T11:27:10.814Z,6.09
2023-11-17T11:28:11.000Z,6.12
2023-11-17T11:29:11.993Z,6.09
2023-11-17T11:30:12.093Z,6.02
2023-11-17T11:31:13.610Z,5.99
2023-11-17T11:32:14.010Z,5.9
2023-11-17T11:33:14.838Z,5.94
2023-11-17T11:34:15.458Z,5.94
2023-11-17T11:35:15.742Z,5.87
2023-11-17T11:36:16.619Z,5.9
2023-11-17T11:37:16.552Z,5.91
2023-11-17T11:38:17.387Z,5.99
2023-11-17T11:39:17.315Z,6.07
2023-11-17T11:40:18.140Z,6.07
2023-11-17T11:41:18.907Z,6.06
2023-11-17T11:42:20.017Z,5.99
2023-11-17T11:43:21.046Z,6.01
2023-11-17T11:44:20.603Z,6.1
2023-11-17T11:45:21.502Z,6.12
2023-11-17T11:46:22.519Z,6.22
2023-11-17T11:47:23.281Z,6.12
2023-11-17T11:48:23.742Z,6.2
2023-11-17T11:49:23.530Z,6.13
2023-11-17T11:50:24.062Z,6.13
2023-11-17T11:51:24.766Z,6.17
2023-11-17T11:52:25.285Z,6.16
2023-11-17T11:53:26.593Z,6.19
2023-11-17T11:54:26.485Z,6.19
2023-11-17T11:55:26.975Z,6.22
2023-11-17T11:56:28.204Z,6.17
2023-11-17T11:57:28.195Z,6.16
2023-11-17T11:58:28.822Z,6.12
2023-11-17T11:59:29.080Z,6.17
2023-11-17T12:00:29.808Z,6.25
2023-11-17T12:01:30.716Z,6.26
2023-11-17T12:02:31.122Z,6.25
2023-11-17T12:03:32.052Z,6.22
2023-11-17T12:04:32.410Z,6.28
2023-11-17T12:05:32.852Z,6.32
2023-11-17T12:06:39.238Z,6.38
2023-11-17T12:07:34.111Z,6.39
2023-11-17T12:08:35.107Z,6.39
2023-11-17T12:09:35.616Z,6.43
2023-11-17T12:10:36.439Z,6.54
2023-11-17T12:11:36.818Z,6.43
2023-11-17T12:12:36.973Z,6.44
2023-11-17T12:13:37.453Z,6.5
2023-11-17T12:14:37.463Z,6.41
2023-11-17T12:15:38.213Z,6.36
2023-11-17T12:16:38.950Z,6.46
2023-11-17T12:17:39.284Z,6.41
2023-11-17T12:18:39.444Z,6.49
2023-11-17T12:19:40.085Z,6.53
2023-11-17T12:20:40.053Z,6.49
2023-11-17T12:21:40.581Z,6.52
2023-11-17T12:22:41.583Z,6.53
2023-11-17T12:23:42.549Z,6.54
2023-11-17T12:24:42.910Z,6.56
2023-11-17T12:25:42.949Z,6.49
2023-11-17T12:26:43.845Z,6.47
2023-11-17T12:27:44.745Z,6.38
2023-11-17T12:28:45.397Z,6.38
2023-11-17T12:29:48.866Z,6.31
2023-11-17T12:31:48.412Z,6.16
2023-11-17T12:32:48.404Z,6.25
2023-11-17T12:33:48.583Z,6.12
2023-11-17T12:34:49.530Z,6.16
2023-11-17T12:35:49.502Z,6.2
2023-11-17T12:36:49.902Z,6.2
2023-11-17T12:37:50.865Z,6.2
2023-11-17T12:38:50.739Z,6.2
2023-11-17T12:39:51.940Z,6.2
2023-11-17T12:40:52.600Z,6.28
2023-11-17T12:41:52.883Z,6.26
2023-11-17T12:42:52.665Z,6.16
2023-11-17T12:43:53.715Z,6.35
2023-11-17T12:44:53.750Z,6.22
2023-11-17T12:45:54.657Z,6.2
2023-11-17T12:46:55.209Z,6.36
2023-11-17T12:47:55.873Z,6.36
2023-11-17T12:48:55.826Z,6.36
2023-11-17T12:49:56.502Z,6.34
2023-11-17T12:50:57.429Z,6.31
2023-11-17T12:51:58.210Z,6.43
2023-11-17T12:53:14.080Z,6.43
2023-11-17T12:54:59.464Z,6.38
2023-11-17T12:56:00.381Z,6.39
2023-11-17T12:57:00.952Z,6.39
2023-11-17T12:58:01.830Z,6.41
2023-11-17T12:59:02.939Z,6.39
2023-11-17T13:00:03.718Z,6.47
2023-11-17T13:01:04.004Z,6.38
2023-11-17T13:02:05.184Z,6.41
2023-11-17T13:03:05.572Z,6.39
2023-11-17T13:04:07.200Z,6.44
2023-11-17T13:05:06.795Z,6.41
2023-11-17T13:06:07.835Z,6.46
2023-11-17T13:07:08.352Z,6.41
2023-11-17T13:08:08.842Z,6.41
2023-11-17T13:09:09.531Z,6.36
2023-11-17T13:10:10.406Z,6.39
2023-11-17T13:11:11.439Z,6.39
2023-11-17T13:12:12.143Z,6.36
2023-11-17T13:13:13.176Z,6.36
2023-11-17T13:14:14.119Z,6.2
2023-11-17T13:15:15.110Z,6.26
2023-11-17T13:16:16.203Z,6.05
2023-11-17T13:17:16.508Z,6.12
2023-11-17T13:18:17.246Z,5.98
2023-11-17T13:19:18.122Z,5.99
2023-11-17T13:20:18.452Z,6.17
2023-11-17T13:21:18.996Z,6.01
2023-11-17T13:22:19.220Z,5.95
2023-11-17T13:23:19.131Z,5.88
2023-11-17T13:24:20.235Z,5.74
2023-11-17T13:25:21.233Z,5.79
2023-11-17T13:26:22.179Z,5.65
2023-11-17T13:27:23.279Z,5.69
2023-11-17T13:28:23.287Z,5.7
2023-11-17T13:29:28.333Z,5.73
2023-11-17T13:30:25.582Z,5.7
2023-11-17T13:31:27.097Z,5.65
2023-11-17T13:32:27.544Z,5.64
2023-11-17T13:33:27.777Z,5.58
2023-11-17T13:34:28.797Z,5.52
2023-11-17T13:35:32.526Z,5.58
2023-11-17T13:38:30.564Z,5.59
2023-11-17T13:39:31.078Z,5.51
2023-11-17T13:40:32.509Z,5.59
2023-11-17T13:41:34.401Z,5.58
2023-11-17T13:42:34.233Z,5.55
2023-11-17T13:43:34.556Z,5.52
2023-11-17T13:44:37.969Z,5.47
2023-11-17T13:46:36.505Z,5.44
2023-11-17T13:47:37.536Z,5.47
2023-11-17T13:48:37.254Z,5.47
2023-11-17T13:49:38.449Z,5.54
2023-11-17T13:50:38.596Z,5.51
2023-11-17T13:51:38.952Z,5.46